Time;durP1;ratioP1;P1;durP2;ratioP2;P2;SDS_P1;SDS_P2;PMS_P1;PMS_P2;Temp;Humidity;BMP_temperature;BMP_pressure;BME280_temperature;BME280_humidity;BME280_pressure;Samples;Min_cycle;Max_cycle;Signal;HPM_P1;HPM_P2
2022/03/23 00:00:34;;;;;;;22.90;11.77;;;;;;;3.26;49.07;101927.53;4422852;32;20180;-68
2022/03/23 00:03:03;;;;;;;19.58;9.88;;;;;;;3.50;47.93;101940.69;4422729;32;20141;-69
2022/03/23 00:05:32;;;;;;;20.98;9.70;;;;;;;3.29;48.88;101929.38;4422579;32;20179;-69
2022/03/23 00:08:01;;;;;;;18.80;9.23;;;;;;;3.18;48.13;101921.09;4422525;32;20127;-68
2022/03/23 00:10:28;;;;;;;20.48;9.00;;;;;;;3.44;46.52;101921.31;4422685;32;20086;-68
2022/03/23 00:12:57;;;;;;;19.70;8.85;;;;;;;3.76;45.76;101928.72;4422471;32;20093;-69
2022/03/23 00:15:24;;;;;;;15.80;8.27;;;;;;;3.91;45.31;101930.16;4422346;32;20473;-69
2022/03/23 00:17:52;;;;;;;21.40;9.18;;;;;;;4.05;44.41;101924.66;4422523;32;20177;-69
2022/03/23 00:20:19;;;;;;;12.10;6.97;;;;;;;4.27;42.99;101923.78;4422377;32;20448;-69
2022/03/23 00:22:51;;;;;;;16.60;6.97;;;;;;;4.62;40.86;101925.94;4422431;32;20089;-69
2022/03/23 00:25:19;;;;;;;18.30;7.75;;;;;;;4.84;41.31;101919.78;4422173;32;20161;-69
2022/03/23 00:27:47;;;;;;;16.27;6.78;;;;;;;5.07;40.05;101918.00;4422385;32;20162;-69
2022/03/23 00:30:14;;;;;;;13.62;6.78;;;;;;;5.17;39.73;101918.37;4422512;32;20102;-69
2022/03/23 00:32:41;;;;;;;14.05;7.15;;;;;;;5.30;38.69;101919.69;4422236;32;20172;-69
2022/03/23 00:35:09;;;;;;;22.92;7.20;;;;;;;5.46;38.24;101918.47;4422066;32;20125;-69
2022/03/23 00:37:37;;;;;;;16.70;6.87;;;;;;;5.52;37.81;101918.69;4423194;32;20170;-69
2022/03/23 00:40:05;;;;;;;11.40;7.12;;;;;;;5.63;37.68;101914.69;4424592;32;20138;-69
2022/03/23 00:42:32;;;;;;;12.18;6.85;;;;;;;5.74;37.32;101915.94;4424341;32;20124;-69
2022/03/23 00:44:59;;;;;;;12.48;7.10;;;;;;;5.76;36.65;101916.00;4424185;32;20105;-69
2022/03/23 00:47:26;;;;;;;14.63;7.32;;;;;;;5.79;36.69;101913.44;4424394;32;20501;-69
2022/03/23 00:49:53;;;;;;;15.15;7.03;;;;;;;5.72;36.80;101909.78;4424228;32;20464;-68
2022/03/23 00:52:20;;;;;;;13.13;7.10;;;;;;;5.74;36.87;101910.69;4424327;32;20129;-68
2022/03/23 00:54:48;;;;;;;14.07;7.40;;;;;;;5.88;36.89;101912.88;4424040;32;20113;-68
2022/03/23 00:57:15;;;;;;;13.93;7.53;;;;;;;5.90;36.18;101909.47;4424158;32;20092;-69
2022/03/23 00:59:42;;;;;;;16.70;7.20;;;;;;;5.97;35.95;101913.19;4424285;32;20108;-69
2022/03/23 01:02:10;;;;;;;14.60;7.70;;;;;;;6.07;36.21;101903.88;4424065;32;20153;-68
2022/03/23 01:04:37;;;;;;;17.45;8.00;;;;;;;6.15;35.64;101905.03;4424051;32;20094;-69
2022/03/23 01:07:05;;;;;;;16.58;8.18;;;;;;;6.16;35.70;101904.19;4424223;32;20127;-69
2022/03/23 01:09:35;;;;;;;21.10;7.50;;;;;;;6.11;35.52;101901.44;4424161;32;20119;-69
2022/03/23 01:12:02;;;;;;;13.48;7.30;;;;;;;6.12;35.55;101897.97;4424056;32;20090;-68
2022/03/23 01:14:30;;;;;;;13.62;6.70;;;;;;;6.25;35.65;101898.31;4424122;32;20086;-69
2022/03/23 01:16:57;;;;;;;17.73;7.97;;;;;;;6.18;35.37;101897.25;4424164;32;20101;-69
2022/03/23 01:19:27;;;;;;;16.62;7.95;;;;;;;6.25;35.48;101895.72;4424202;32;20135;-69
2022/03/23 01:21:55;;;;;;;16.23;7.60;;;;;;;6.32;35.48;101889.81;4423969;32;20164;-68
2022/03/23 01:24:22;;;;;;;16.65;7.90;;;;;;;6.39;35.21;101895.28;4423965;32;20094;-69
2022/03/23 01:26:49;;;;;;;17.33;8.10;;;;;;;6.44;35.13;101879.72;4423884;32;20134;-69
2022/03/23 01:29:16;;;;;;;18.37;7.22;;;;;;;6.73;34.46;101882.28;4423949;32;20441;-69
2022/03/23 01:31:46;;;;;;;19.60;8.35;;;;;;;6.84;34.20;101879.09;4423897;32;20488;-69
2022/03/23 01:34:14;;;;;;;15.45;7.82;;;;;;;6.77;34.29;101889.38;4423887;32;20453;-69
2022/03/23 01:36:41;;;;;;;20.17;7.85;;;;;;;6.81;34.97;101881.63;4397033;32;20193;-69
2022/03/23 01:39:09;;;;;;;14.65;8.02;;;;;;;6.75;34.53;101881.47;4423900;32;20412;-69
2022/03/23 01:41:38;;;;;;;15.23;8.27;;;;;;;6.91;34.09;101883.66;4423820;32;20454;-69
2022/03/23 01:44:20;;;;;;;18.10;8.43;;;;;;;6.85;34.15;101879.97;4424110;32;20098;-68
2022/03/23 01:47:08;;;;;;;16.67;8.55;;;;;;;6.75;34.26;101883.19;4423897;32;20085;-69
2022/03/23 01:49:41;;;;;;;13.98;7.72;;;;;;;6.62;34.76;101884.59;4423889;32;20069;-69
2022/03/23 01:52:10;;;;;;;17.98;7.47;;;;;;;6.52;35.35;101883.44;4423974;32;20165;-69
2022/03/23 01:54:39;;;;;;;14.87;7.72;;;;;;;6.41;35.08;101890.09;4423607;32;20090;-69
2022/03/23 01:57:10;;;;;;;17.62;8.30;;;;;;;6.44;35.78;101887.56;4423757;32;20101;-69
2022/03/23 01:59:37;;;;;;;20.02;7.95;;;;;;;6.47;35.29;101885.03;4423895;32;20417;-69
2022/03/23 02:02:06;;;;;;;16.95;7.15;;;;;;;6.41;35.24;101883.12;4423979;32;20098;-69
2022/03/23 02:04:36;;;;;;;18.62;7.75;;;;;;;6.33;35.39;101883.75;4423967;32;20078;-69
2022/03/23 02:07:04;;;;;;;16.20;7.43;;;;;;;6.35;35.19;101882.94;4423693;32;20097;-69
2022/03/23 02:09:32;;;;;;;15.95;7.85;;;;;;;6.39;35.47;101891.75;4423887;32;20557;-69
2022/03/23 02:12:08;;;;;;;22.13;8.85;;;;;;;6.42;35.52;101879.66;4423799;32;20090;-69
2022/03/23 02:14:36;;;;;;;16.08;7.75;;;;;;;6.52;35.35;101885.16;4423672;32;20560;-69
2022/03/23 02:17:05;;;;;;;18.58;8.07;;;;;;;6.51;35.27;101883.41;4423635;32;20459;-69
2022/03/23 02:19:33;;;;;;;22.10;8.52;;;;;;;6.41;35.14;101892.72;4423832;32;20170;-69
2022/03/23 02:22:01;;;;;;;15.68;7.70;;;;;;;6.29;35.51;101892.34;4423831;32;20438;-69
2022/03/23 02:24:30;;;;;;;16.70;7.90;;;;;;;6.34;35.89;101888.16;4423628;32;20365;-69
2022/03/23 02:26:58;;;;;;;14.05;8.15;;;;;;;6.33;35.59;101886.38;4423767;32;20089;-69
2022/03/23 02:29:29;;;;;;;17.27;8.20;;;;;;;6.33;35.93;101886.38;4423762;32;20107;-69
2022/03/23 02:31:57;;;;;;;16.60;7.75;;;;;;;6.28;36.27;101880.09;4423618;32;20089;-69
2022/03/23 02:34:28;;;;;;;18.73;7.55;;;;;;;6.21;36.10;101879.91;4423429;32;20125;-69
2022/03/23 02:36:59;;;;;;;17.27;7.50;;;;;;;6.24;36.05;101884.34;4423865;32;20120;-69
2022/03/23 02:39:27;;;;;;;16.85;8.25;;;;;;;6.35;36.21;101885.56;4423819;32;20116;-69
2022/03/23 02:41:56;;;;;;;18.10;7.07;;;;;;;6.25;35.95;101893.09;4409216;32;20482;-68
2022/03/23 02:44:27;;;;;;;19.50;8.13;;;;;;;6.25;36.26;101891.34;4423497;32;20169;-69
2022/03/23 02:46:54;;;;;;;18.27;7.93;;;;;;;6.09;36.32;101887.41;4423465;32;20132;-69
2022/03/23 02:49:22;;;;;;;14.55;7.65;;;;;;;6.07;36.36;101891.69;4423680;32;20085;-69
2022/03/23 02:51:50;;;;;;;14.15;7.45;;;;;;;6.04;36.71;101882.84;4423761;32;20116;-69
2022/03/23 03:03:30;;;;;;;16.58;7.22;;;;;;;5.94;37.54;101884.31;4423458;32;20135;-69
2022/03/23 03:05:57;;;;;;;19.20;6.82;;;;;;;5.83;36.96;101883.97;4423271;32;20507;-69
2022/03/23 03:11:10;;;;;;;18.48;8.07;;;;;;;5.73;37.20;101888.00;4423436;32;20132;-69
2022/03/23 03:13:39;;;;;;;15.55;7.80;;;;;;;5.66;37.55;101883.41;4423269;32;20112;-69
2022/03/23 03:16:07;;;;;;;17.05;7.78;;;;;;;5.67;37.97;101881.69;4423180;32;20094;-69
2022/03/23 03:18:34;;;;;;;17.00;7.80;;;;;;;5.64;37.81;101884.19;4423119;32;20109;-69
2022/03/23 03:21:09;;;;;;;16.25;8.50;;;;;;;5.66;38.19;101882.53;4423232;32;20406;-69
2022/03/23 03:23:38;;;;;;;16.45;7.30;;;;;;;5.59;38.25;101877.94;4423346;32;20197;-69
2022/03/23 03:26:06;;;;;;;16.77;8.25;;;;;;;5.50;39.01;101882.00;4422952;32;20128;-68
2022/03/23 03:28:35;;;;;;;15.98;6.85;;;;;;;5.52;38.77;101882.09;4423160;32;20127;-69
2022/03/23 03:31:04;;;;;;;19.92;7.85;;;;;;;5.58;38.09;101886.59;4423141;32;20081;-69
2022/03/23 03:33:32;;;;;;;18.30;7.80;;;;;;;5.51;38.17;101875.06;4422937;32;20136;-69
2022/03/23 03:35:59;;;;;;;18.90;7.72;;;;;;;5.44;38.11;101873.06;4422889;32;20102;-69
2022/03/23 03:38:27;;;;;;;20.77;7.43;;;;;;;5.39;38.15;101882.50;4423040;32;20097;-69
2022/03/23 03:40:55;;;;;;;18.73;7.65;;;;;;;5.35;38.27;101881.53;4422956;32;20488;-69
2022/03/23 03:43:24;;;;;;;17.00;8.30;;;;;;;5.34;38.31;101877.13;4422980;32;20085;-69
2022/03/23 03:45:52;;;;;;;12.30;7.43;;;;;;;5.39;38.85;101874.66;4423030;32;20165;-69
2022/03/23 03:48:20;;;;;;;15.75;8.70;;;;;;;5.39;38.88;101879.91;4423037;32;20661;-69
2022/03/23 03:50:47;;;;;;;19.65;8.30;;;;;;;5.32;39.22;101880.53;4423167;32;20397;-69
2022/03/23 03:53:15;;;;;;;16.55;7.78;;;;;;;5.26;38.87;101878.59;4422993;32;20516;-69
2022/03/23 03:55:42;;;;;;;19.83;9.55;;;;;;;5.37;38.85;101871.09;4422906;32;20090;-69
2022/03/23 03:58:09;;;;;;;19.75;8.55;;;;;;;5.30;39.68;101880.50;4422888;32;20112;-69
2022/03/23 04:00:37;;;;;;;17.35;8.45;;;;;;;5.33;39.11;101877.06;4422970;32;20111;-69
2022/03/23 04:03:05;;;;;;;15.85;8.27;;;;;;;5.36;39.88;101882.41;4422854;32;20458;-69
2022/03/23 04:05:33;;;;;;;18.95;8.23;;;;;;;5.34;39.30;101882.38;4422772;32;20124;-69
2022/03/23 04:08:01;;;;;;;16.65;8.38;;;;;;;5.39;39.46;101882.50;4422848;32;20167;-68
2022/03/23 04:10:28;;;;;;;21.37;9.73;;;;;;;5.52;39.32;101889.94;4408260;32;20157;-69
2022/03/23 04:12:56;;;;;;;23.52;9.65;;;;;;;5.54;39.10;101888.22;4423978;32;20188;-69
2022/03/23 04:15:25;;;;;;;24.92;9.00;;;;;;;5.87;38.55;101892.78;4424747;32;20097;-69
2022/03/23 04:17:55;;;;;;;17.40;8.98;;;;;;;5.91;38.45;101892.94;4424765;32;20101;-69
2022/03/23 04:20:23;;;;;;;19.48;9.18;;;;;;;5.93;38.45;101890.38;4424693;32;20107;-69
2022/03/23 04:22:50;;;;;;;19.90;9.65;;;;;;;5.80;38.59;101886.47;4424459;32;20167;-69
2022/03/23 04:25:18;;;;;;;16.75;9.10;;;;;;;5.77;38.81;101882.88;4424222;32;20148;-69
2022/03/23 04:27:51;;;;;;;21.15;9.10;;;;;;;5.72;38.86;101891.47;4424310;32;20155;-69
2022/03/23 04:30:20;;;;;;;22.92;9.05;;;;;;;5.61;38.78;101891.94;4424389;32;20164;-69
2022/03/23 04:32:49;;;;;;;21.65;8.90;;;;;;;5.59;39.02;101888.41;4424379;32;20094;-69
2022/03/23 04:35:17;;;;;;;19.25;8.40;;;;;;;5.62;38.88;101889.41;4424347;32;20120;-69
2022/03/23 04:37:45;;;;;;;19.87;8.70;;;;;;;5.63;39.11;101885.94;4424230;32;20101;-69
2022/03/23 04:40:16;;;;;;;23.80;9.98;;;;;;;5.63;38.98;101887.66;4424290;32;20445;-68
2022/03/23 04:42:45;;;;;;;16.95;8.63;;;;;;;5.61;39.19;101886.72;4424252;32;20073;-69
2022/03/23 04:45:14;;;;;;;21.80;9.48;;;;;;;5.57;38.92;101887.44;4424077;32;20523;-69
2022/03/23 04:47:43;;;;;;;17.80;8.70;;;;;;;5.53;38.92;101886.47;4424202;32;20155;-69
2022/03/23 04:50:12;;;;;;;17.67;8.82;;;;;;;5.49;38.99;101888.09;4424285;32;20113;-69
2022/03/23 04:52:41;;;;;;;21.10;8.88;;;;;;;5.45;38.83;101893.19;4424234;32;20133;-69
2022/03/23 04:55:11;;;;;;;21.83;9.23;;;;;;;5.43;39.38;101895.72;4424296;32;20501;-69
2022/03/23 04:57:39;;;;;;;19.90;8.65;;;;;;;5.42;39.41;101896.56;4424343;32;20167;-69
2022/03/23 05:00:14;;;;;;;21.12;9.75;;;;;;;5.44;39.50;101896.59;4424443;32;20100;-69
2022/03/23 05:02:45;;;;;;;20.27;8.55;;;;;;;5.47;39.79;101896.72;4431908;32;20093;-69
2022/03/23 05:05:13;;;;;;;24.95;8.95;;;;;;;5.44;39.28;101891.37;4424244;32;20109;-69
2022/03/23 05:07:41;;;;;;;21.48;8.32;;;;;;;5.49;40.01;101895.06;4435891;32;20109;-69
2022/03/23 05:10:10;;;;;;;17.58;8.02;;;;;;;5.60;39.75;101896.28;4439496;32;20127;-69
2022/03/23 05:12:38;;;;;;;17.05;8.10;;;;;;;5.74;39.42;101904.56;4439417;32;20151;-69
2022/03/23 05:15:06;;;;;;;17.12;8.88;;;;;;;5.88;39.32;101907.63;4424873;32;20106;-69
2022/03/23 05:17:33;;;;;;;16.80;8.57;;;;;;;5.97;39.04;101918.41;4439456;32;20169;-69
2022/03/23 05:20:01;;;;;;;23.95;9.00;;;;;;;6.07;39.28;101912.63;4426227;32;20101;-69
2022/03/23 05:22:28;;;;;;;26.90;8.68;;;;;;;6.17;38.95;101919.03;4430230;32;20086;-69
2022/03/23 05:24:56;;;;;;;20.62;8.20;;;;;;;6.28;38.77;101924.59;4439266;32;20531;-69
2022/03/23 05:27:23;;;;;;;22.58;8.88;;;;;;;6.37;38.63;101917.91;4439374;32;20995;-69
2022/03/23 05:29:50;;;;;;;31.80;8.73;;;;;;;6.49;38.74;101925.25;4439012;32;20432;-69
2022/03/23 05:32:18;;;;;;;21.33;9.32;;;;;;;6.63;38.54;101918.66;4439545;32;20146;-70
2022/03/23 05:34:46;;;;;;;31.80;9.10;;;;;;;6.77;38.09;101926.03;4439291;32;20105;-69
2022/03/23 05:37:13;;;;;;;19.02;8.73;;;;;;;6.91;37.97;101929.94;4439201;32;20201;-69
2022/03/23 05:39:40;;;;;;;21.27;9.55;;;;;;;6.99;37.73;101915.31;4439543;32;20429;-69
2022/03/23 05:42:08;;;;;;;22.10;8.85;;;;;;;7.12;37.89;101913.91;4439365;32;20089;-70
2022/03/23 05:44:36;;;;;;;27.33;9.20;;;;;;;7.24;37.62;101919.47;4438746;32;20445;-71
2022/03/23 05:47:04;;;;;;;22.77;10.02;;;;;;;7.37;37.53;101915.44;4439243;32;20089;-71
2022/03/23 05:49:32;;;;;;;32.88;9.45;;;;;;;7.57;37.26;101911.59;4439209;32;20635;-70
2022/03/23 05:52:00;;;;;;;27.08;9.75;;;;;;;7.76;36.92;101909.41;4438721;32;20115;-71
2022/03/23 05:54:27;;;;;;;25.73;9.95;;;;;;;7.89;36.90;101906.22;4439095;32;20093;-71
2022/03/23 05:56:54;;;;;;;21.17;9.57;;;;;;;8.06;36.45;101918.00;4423263;32;20105;-70
2022/03/23 05:59:22;;;;;;;116.43;13.02;;;;;;;8.24;36.33;101919.28;4424024;32;20154;-71
2022/03/23 06:01:49;;;;;;;22.13;9.35;;;;;;;8.28;36.44;101910.63;4410268;32;20102;-71
2022/03/23 06:04:16;;;;;;;60.05;11.25;;;;;;;8.51;36.12;101913.75;4438221;32;20105;-69
2022/03/23 06:06:43;;;;;;;35.33;10.52;;;;;;;8.66;35.92;101918.44;4439607;32;20173;-70
2022/03/23 06:09:12;;;;;;;19.52;9.75;;;;;;;8.76;35.63;101917.78;4439799;32;20080;-70
2022/03/23 06:11:40;;;;;;;26.35;9.48;;;;;;;9.01;34.98;101916.50;4439583;32;20081;-71
2022/03/23 06:14:07;;;;;;;16.35;9.30;;;;;;;9.07;35.24;101914.87;4439512;32;20427;-71
2022/03/23 06:16:34;;;;;;;22.85;10.32;;;;;;;9.28;34.84;101913.50;4439531;32;20101;-72
2022/03/23 06:19:02;;;;;;;20.33;9.48;;;;;;;9.39;34.39;101914.56;4439651;32;20109;-72
2022/03/23 06:21:29;;;;;;;21.20;10.50;;;;;;;9.50;34.43;101912.13;4438241;32;20496;-72
2022/03/23 06:23:56;;;;;;;21.15;9.65;;;;;;;9.57;34.29;101914.00;4437995;32;20152;-72
2022/03/23 06:26:24;;;;;;;26.15;10.82;;;;;;;9.76;34.24;101917.84;4438507;32;20162;-71
2022/03/23 06:28:51;;;;;;;34.80;10.65;;;;;;;9.84;33.73;101918.84;4438809;32;20392;-70
2022/03/23 06:31:18;;;;;;;23.00;10.38;;;;;;;9.97;33.44;101918.19;4438257;32;20475;-70
2022/03/23 06:33:46;;;;;;;32.80;10.88;;;;;;;9.97;33.78;101919.94;4438270;32;20089;-70
2022/03/23 06:36:13;;;;;;;40.80;10.73;;;;;;;10.09;33.47;101920.09;4422327;32;20166;-70
2022/03/23 06:38:40;;;;;;;23.52;9.93;;;;;;;10.19;33.30;101922.00;4423265;32;20506;-70
2022/03/23 06:41:07;;;;;;;24.50;10.25;;;;;;;10.33;32.70;101913.44;4423475;32;20638;-71
2022/03/23 06:43:34;;;;;;;26.10;9.70;;;;;;;10.35;33.18;101917.84;4422971;32;20148;-71
2022/03/23 06:46:03;;;;;;;17.70;9.18;;;;;;;10.48;32.76;101918.91;4423066;32;20453;-72
2022/03/23 06:48:31;;;;;;;29.02;10.07;;;;;;;10.49;32.92;101932.13;4408983;32;20077;-71
2022/03/23 06:50:59;;;;;;;24.45;10.15;;;;;;;10.65;32.21;101922.66;4423043;32;20085;-71
2022/03/23 06:53:26;;;;;;;40.25;10.50;;;;;;;10.69;32.59;101929.72;4423331;32;20094;-72
2022/03/23 06:55:53;;;;;;;20.75;10.52;;;;;;;10.77;32.29;101924.53;4431947;32;20178;-72
2022/03/23 06:58:21;;;;;;;27.02;9.52;;;;;;;10.86;32.12;101922.03;4438325;32;20432;-72
2022/03/23 07:00:48;;;;;;;35.95;11.93;;;;;;;10.84;32.11;101921.09;4437906;32;20169;-72
2022/03/23 07:03:15;;;;;;;30.12;9.88;;;;;;;10.97;32.18;101923.03;4438396;32;20205;-72
2022/03/23 07:05:43;;;;;;;21.52;10.52;;;;;;;11.03;32.28;101919.59;4438199;32;20454;-72
2022/03/23 07:10:56;;;;;;;24.52;11.20;;;;;;;11.19;32.25;101920.63;4438339;32;20238;-72
2022/03/23 07:13:24;;;;;;;23.40;10.57;;;;;;;11.30;31.86;101920.72;4438066;32;20124;-72
2022/03/23 07:15:51;;;;;;;22.60;12.00;;;;;;;11.34;31.88;101917.22;4438189;32;20101;-71
2022/03/23 07:18:24;;;;;;;22.55;11.12;;;;;;;11.40;31.72;101920.81;4438379;32;20073;-72
2022/03/23 07:20:52;;;;;;;27.25;11.30;;;;;;;11.43;31.85;101920.84;4438126;32;20506;-72
2022/03/23 07:23:19;;;;;;;25.33;11.60;;;;;;;11.55;31.46;101925.34;4438260;32;20127;-72
2022/03/23 07:25:47;;;;;;;41.80;12.55;;;;;;;11.61;31.59;101925.41;4438154;32;20594;-72
2022/03/23 07:28:15;;;;;;;29.15;11.10;;;;;;;11.73;31.21;101919.34;4437918;32;20097;-71
2022/03/23 07:30:42;;;;;;;23.90;10.63;;;;;;;11.80;31.52;101921.19;4423835;32;20389;-70
2022/03/23 07:33:10;;;;;;;22.90;12.35;;;;;;;11.89;31.47;101923.03;4438116;32;20101;-70
2022/03/23 07:35:37;;;;;;;24.63;10.65;;;;;;;12.10;32.25;101919.66;4437947;32;20518;-70
2022/03/23 07:38:05;;;;;;;29.73;11.25;;;;;;;12.21;31.14;101920.59;4438021;32;20090;-70
2022/03/23 07:40:32;;;;;;;22.27;10.93;;;;;;;12.36;31.17;101925.97;4437989;32;20093;-70
2022/03/23 07:42:59;;;;;;;35.95;11.63;;;;;;;12.48;30.75;101921.63;4437718;32;20166;-70
2022/03/23 07:45:27;;;;;;;21.80;11.02;;;;;;;12.62;33.35;101915.53;4438294;32;20759;-70
2022/03/23 07:47:55;;;;;;;21.55;11.10;;;;;;;12.76;31.05;101917.34;4438718;32;20128;-70
2022/03/23 07:50:22;;;;;;;32.75;11.75;;;;;;;12.93;30.62;101918.25;4438685;32;20513;-71
2022/03/23 07:52:49;;;;;;;28.50;10.85;;;;;;;12.94;30.14;101919.16;4437798;32;20109;-71
2022/03/23 07:55:17;;;;;;;25.12;12.05;;;;;;;13.13;30.36;101919.19;4432341;32;20163;-70
2022/03/23 07:57:45;;;;;;;21.80;11.00;;;;;;;13.37;30.62;101913.09;4422421;32;20497;-70
2022/03/23 08:00:14;;;;;;;23.20;10.73;;;;;;;13.48;32.37;101914.87;4422200;32;20101;-70
2022/03/23 08:02:42;;;;;;;20.17;10.82;;;;;;;13.60;29.39;101922.81;4422297;32;20101;-70
2022/03/23 08:05:10;;;;;;;31.77;10.35;;;;;;;13.85;29.76;101928.97;4422840;32;20097;-69
2022/03/23 08:07:37;;;;;;;22.77;12.07;;;;;;;13.92;31.82;101928.09;4438095;32;20089;-69
2022/03/23 08:10:05;;;;;;;22.27;9.85;;;;;;;14.02;30.37;101924.56;4438269;32;20093;-70
2022/03/23 08:12:32;;;;;;;30.30;10.57;;;;;;;14.26;31.14;101920.09;4438215;32;20123;-69
2022/03/23 08:14:59;;;;;;;22.20;10.02;;;;;;;14.36;29.03;101927.16;4438270;32;20102;-70
2022/03/23 08:17:27;;;;;;;29.05;10.25;;;;;;;14.57;31.29;101924.44;4438075;32;20161;-70
2022/03/23 08:22:40;;;;;;;23.65;10.55;;;;;;;14.85;28.08;101910.19;4438095;32;20151;-70
2022/03/23 08:25:08;;;;;;;22.80;10.40;;;;;;;14.96;27.76;101918.97;4438513;32;20125;-71
2022/03/23 08:27:35;;;;;;;23.83;10.98;;;;;;;15.02;26.76;101914.50;4435567;32;20432;-69
2022/03/23 08:30:03;;;;;;;22.48;10.27;;;;;;;15.16;27.16;101913.53;4429660;32;20086;-69
2022/03/23 08:32:30;;;;;;;23.17;9.95;;;;;;;15.20;27.04;101910.00;4429498;32;20140;-70
2022/03/23 08:34:57;;;;;;;18.95;9.98;;;;;;;15.28;26.49;101913.47;4429899;32;20104;-70
2022/03/23 08:37:26;;;;;;;21.42;9.75;;;;;;;15.46;25.56;101905.34;4430898;32;20172;-69
2022/03/23 08:39:53;;;;;;;21.42;10.63;;;;;;;15.57;26.89;101910.56;4432117;32;20089;-70
2022/03/23 08:42:21;;;;;;;19.27;10.00;;;;;;;15.63;26.32;101905.22;4438000;32;20241;-69
2022/03/23 08:44:48;;;;;;;22.87;10.13;;;;;;;15.85;28.35;101905.94;4438156;32;20471;-70
2022/03/23 08:47:17;;;;;;;24.65;10.30;;;;;;;16.04;25.90;101906.62;4438196;32;20093;-69
2022/03/23 08:49:45;;;;;;;36.20;9.80;;;;;;;16.22;27.40;101910.91;4435186;32;20142;-71
2022/03/23 08:52:12;;;;;;;18.42;10.30;;;;;;;16.26;28.56;101907.31;4438245;32;20097;-71
2022/03/23 08:54:39;;;;;;;17.95;9.95;;;;;;;16.35;24.97;101903.66;4436756;32;20991;-70
2022/03/23 08:57:06;;;;;;;23.90;10.32;;;;;;;16.46;26.48;101907.06;4422153;32;20131;-70
2022/03/23 08:59:34;;;;;;;22.27;9.98;;;;;;;16.71;25.92;101904.97;4424660;32;20114;-71
2022/03/23 09:02:01;;;;;;;18.67;10.02;;;;;;;16.72;25.02;101902.31;4424727;32;20094;-70
2022/03/23 09:04:28;;;;;;;24.20;10.13;;;;;;;16.96;28.83;101906.47;4424487;32;20109;-70
2022/03/23 09:06:55;;;;;;;24.73;9.18;;;;;;;17.10;25.46;101897.38;4424895;32;20101;-71
2022/03/23 09:09:22;;;;;;;25.20;10.30;;;;;;;17.14;24.22;101896.44;4410558;32;20097;-71
2022/03/23 09:11:50;;;;;;;20.08;9.48;;;;;;;17.35;24.72;101898.78;4424568;32;20097;-72
2022/03/23 09:14:17;;;;;;;21.98;9.20;;;;;;;17.48;25.95;101893.22;4424732;32;20127;-72
2022/03/23 09:16:44;;;;;;;20.25;9.23;;;;;;;17.76;27.20;101899.88;4424686;32;20078;-70
2022/03/23 09:19:14;;;;;;;24.85;9.40;;;;;;;17.81;24.54;101895.38;4424623;32;20105;-71
2022/03/23 09:21:42;;;;;;;15.82;9.20;;;;;;;17.91;23.02;101896.97;4424786;32;20515;-72
2022/03/23 09:24:11;;;;;;;18.98;9.63;;;;;;;17.84;23.49;101886.41;4424565;32;20093;-71
2022/03/23 09:26:39;;;;;;;15.23;9.18;;;;;;;17.92;23.40;101884.50;4409473;32;20093;-71
2022/03/23 09:29:07;;;;;;;24.55;9.45;;;;;;;18.22;23.72;101884.81;4424393;32;20534;-70
2022/03/23 09:31:35;;;;;;;16.60;9.07;;;;;;;18.49;27.71;101875.38;4410127;32;20106;-70
2022/03/23 09:34:02;;;;;;;16.90;8.63;;;;;;;18.49;24.37;101872.72;4424148;32;20093;-71
2022/03/23 09:39:15;;;;;;;19.65;8.30;;;;;;;18.90;23.68;101877.16;4424429;32;20086;-71
2022/03/23 09:41:45;;;;;;;29.35;8.38;;;;;;;19.02;24.28;101884.91;4424329;32;20125;-70
2022/03/23 09:44:13;;;;;;;19.80;7.93;;;;;;;18.96;20.83;101870.81;4424302;32;20109;-70
2022/03/23 09:46:41;;;;;;;24.17;8.65;;;;;;;18.84;23.36;101877.31;4424675;32;20085;-70
2022/03/23 09:49:09;;;;;;;20.20;7.35;;;;;;;19.00;23.03;101870.69;4437851;32;20123;-70
2022/03/23 09:51:38;;;;;;;14.73;8.85;;;;;;;19.19;21.39;101872.97;4434690;32;20109;-70
2022/03/23 09:54:06;;;;;;;23.67;9.07;;;;;;;19.46;21.12;101869.59;4424503;32;20173;-70
2022/03/23 09:56:34;;;;;;;14.50;6.90;;;;;;;19.77;26.26;101877.75;4437543;32;20105;-71
2022/03/23 09:59:03;;;;;;;21.77;8.50;;;;;;;19.98;21.10;101865.59;4440041;32;20170;-71
2022/03/23 10:01:30;;;;;;;37.97;8.05;;;;;;;19.86;22.59;101865.94;4439569;32;20211;-70
2022/03/23 10:04:45;;;;;;;41.42;8.25;;;;;;;20.14;21.27;101867.81;4427079;32;20753;-70
2022/03/23 10:07:17;;;;;;;12.63;7.05;;;;;;;20.36;21.30;101862.75;4424073;32;20085;-70
2022/03/23 10:10:03;;;;;;;11.90;6.90;;;;;;;20.34;19.82;101868.16;4422048;32;20446;-71
2022/03/23 10:13:09;;;;;;;16.42;7.18;;;;;;;20.34;20.62;101860.13;4423008;32;20436;-70
2022/03/23 10:16:02;;;;;;;15.10;6.93;;;;;;;20.66;22.43;101853.84;4391237;32;20204;-70
2022/03/23 10:18:58;;;;;;;16.77;8.10;;;;;;;20.74;19.93;101856.28;4423333;32;20089;-70
2022/03/23 10:21:36;;;;;;;17.65;7.97;;;;;;;21.05;19.05;101858.00;4423929;32;20097;-71
2022/03/23 10:24:03;;;;;;;16.83;8.13;;;;;;;21.34;19.24;101862.44;4424863;32;20090;-70
2022/03/23 10:26:32;;;;;;;11.43;7.32;;;;;;;21.55;18.25;101852.78;4439196;32;20096;-70
2022/03/23 10:29:00;;;;;;;24.08;7.43;;;;;;;21.59;17.99;101858.03;4439397;32;20073;-71
2022/03/23 10:31:27;;;;;;;16.83;6.62;;;;;;;21.79;18.04;101851.94;4432966;32;20163;-71
2022/03/23 10:33:57;;;;;;;30.60;9.55;;;;;;;21.78;17.99;101847.50;4428571;32;20085;-71
2022/03/23 10:36:27;;;;;;;19.33;7.10;;;;;;;22.00;19.05;101846.75;4433800;32;20105;-71
2022/03/23 10:39:00;;;;;;;12.25;6.78;;;;;;;21.95;17.55;101841.56;4432600;32;20161;-70
2022/03/23 10:41:27;;;;;;;15.75;6.60;;;;;;;22.16;16.92;101837.25;4423150;32;20097;-71
2022/03/23 10:43:54;;;;;;;14.95;6.72;;;;;;;22.21;17.07;101829.87;4423101;32;20094;-70
2022/03/23 10:46:22;;;;;;;11.12;6.40;;;;;;;22.36;16.98;101820.37;4423405;32;20451;-70
2022/03/23 10:48:51;;;;;;;13.30;6.85;;;;;;;22.61;16.99;101818.47;4423493;32;20750;-71
2022/03/23 10:51:35;;;;;;;15.38;6.85;;;;;;;22.65;15.69;101817.44;4425539;32;20166;-71
2022/03/23 10:54:17;;;;;;;14.18;6.62;;;;;;;22.68;20.12;101811.03;4438224;32;20101;-71
2022/03/23 10:56:45;;;;;;;15.82;6.28;;;;;;;22.90;17.23;101813.78;4425754;32;20425;-71
2022/03/23 10:59:15;;;;;;;16.37;6.47;;;;;;;22.89;16.24;101806.63;4439564;32;20092;-71
2022/03/23 11:01:57;;;;;;;9.02;6.07;;;;;;;22.98;16.62;101811.66;4428157;32;20107;-72
2022/03/23 11:04:29;;;;;;;13.40;6.00;;;;;;;23.23;16.43;101811.53;4414233;32;20132;-70
2022/03/23 11:06:58;;;;;;;16.98;5.95;;;;;;;24.19;15.89;101792.94;4435191;32;20488;-70
2022/03/23 11:18:17;;;;;;;11.82;5.53;;;;;;;27.21;13.43;101787.00;4423480;32;20127;-71
2022/03/23 11:20:56;;;;;;;12.13;6.15;;;;;;;28.21;12.27;101779.09;4422821;32;20112;-71
2022/03/23 11:23:30;;;;;;;17.10;6.57;;;;;;;28.80;12.53;101779.78;4423581;32;20150;-71
2022/03/23 11:26:00;;;;;;;12.68;6.10;;;;;;;29.04;12.53;101785.41;4423552;32;20101;-70
2022/03/23 11:28:35;;;;;;;9.63;5.80;;;;;;;29.54;11.91;101781.94;4427117;32;20105;-70
2022/03/23 11:31:08;;;;;;;10.38;5.50;;;;;;;30.10;10.58;101773.47;4422792;32;20705;-71
2022/03/23 11:33:37;;;;;;;18.95;5.72;;;;;;;30.66;11.17;101763.03;4409927;32;21255;-71
2022/03/23 11:36:11;;;;;;;8.35;5.43;;;;;;;30.44;10.45;101762.91;4437153;32;20089;-71
2022/03/23 11:38:39;;;;;;;12.85;5.57;;;;;;;31.45;9.88;101762.53;4438251;32;20472;-71
2022/03/23 11:41:08;;;;;;;9.32;5.97;;;;;;;29.86;9.83;101758.94;4423632;32;20876;-71
2022/03/23 11:43:37;;;;;;;23.02;6.95;;;;;;;30.79;9.05;101754.84;4438409;32;20105;-71
2022/03/23 11:46:22;;;;;;;9.38;6.10;;;;;;;30.67;9.45;101745.75;4437367;32;20376;-71
2022/03/23 11:49:23;;;;;;;11.55;5.50;;;;;;;29.78;10.22;101741.31;4438036;32;20924;-71
2022/03/23 11:52:15;;;;;;;12.68;6.53;;;;;;;28.77;10.12;101745.56;4438772;32;20506;-73
2022/03/23 11:57:56;;;;;;;14.02;6.05;;;;;;;30.76;10.21;101732.44;4423337;32;20105;-73
2022/03/23 12:00:26;;;;;;;10.88;6.12;;;;;;;32.07;9.01;101732.16;4422708;32;20120;-73